createdAt,value
2018-05-05T00:01:31.268Z,97642.09
2018-05-05T00:03:58.826Z,97637.20
2018-05-05T00:06:26.407Z,97633.95
2018-05-05T00:08:53.973Z,97638.89
2018-05-05T00:11:21.505Z,97641.71
2018-05-05T00:13:49.063Z,97641.77
2018-05-05T00:16:16.760Z,97634.36
2018-05-05T00:18:44.276Z,97638.44
2018-05-05T00:21:11.801Z,97638.57
2018-05-05T00:23:40.537Z,97630.33
2018-05-05T00:26:08.109Z,97628.67
2018-05-05T00:28:35.659Z,97622.52
2018-05-05T00:31:03.233Z,97622.45
2018-05-05T00:33:30.769Z,97622.91
2018-05-05T00:35:58.328Z,97617.59
2018-05-05T00:38:26.096Z,97611.25
2018-05-05T00:40:53.727Z,97617.41
2018-05-05T00:43:21.585Z,97614.41
2018-05-05T00:45:49.280Z,97607.57
2018-05-05T00:48:16.813Z,97613.52
2018-05-05T00:50:44.328Z,97612.34
2018-05-05T00:53:12.168Z,97612.27
2018-05-05T00:55:39.742Z,97610.48
2018-05-05T00:58:07.253Z,97608.86
2018-05-05T01:00:35.032Z,97608.57
2018-05-05T01:03:02.547Z,97609.91
2018-05-05T01:05:30.101Z,97608.41
2018-05-05T01:07:57.708Z,97607.02
2018-05-05T01:10:25.224Z,97618.91
2018-05-05T01:12:52.763Z,97619.86
2018-05-05T01:15:20.505Z,97622.52
2018-05-05T01:17:48.082Z,97621.55
2018-05-05T01:20:15.638Z,97618.83
2018-05-05T01:22:43.511Z,97622.08
2018-05-05T01:28:09.946Z,97612.53
2018-05-05T01:30:37.535Z,97614.74
2018-05-05T01:33:05.138Z,97612.84
2018-05-05T01:35:33.108Z,97597.06
2018-05-05T01:38:00.625Z,97598.11
2018-05-05T01:40:28.141Z,97593.86
2018-05-05T01:42:55.697Z,97602.80
2018-05-05T01:45:23.288Z,97601.38
2018-05-05T01:47:50.828Z,97602.52
2018-05-05T01:50:18.520Z,97611.50
2018-05-05T01:52:46.035Z,97615.45
2018-05-05T01:55:13.552Z,97616.48
2018-05-05T01:57:41.168Z,97621.92
2018-05-05T02:00:08.748Z,97622.15
2018-05-05T02:02:36.281Z,97619.38
2018-05-05T02:05:04.051Z,97620.69
2018-05-05T02:07:31.622Z,97627.30
2018-05-05T02:09:59.169Z,97621.80
2018-05-05T02:12:28.052Z,97626.18
2018-05-05T02:14:55.575Z,97617.23
2018-05-05T02:17:23.123Z,97621.50
2018-05-05T02:19:50.740Z,97620.51
2018-05-05T02:22:18.292Z,97629.45
2018-05-05T02:24:45.856Z,97622.97
2018-05-05T02:27:13.438Z,97630.61
2018-05-05T02:29:41.031Z,97621.55
2018-05-05T02:32:08.593Z,97625.60
2018-05-05T02:34:36.297Z,97619.92
2018-05-05T02:37:03.869Z,97622.64
2018-05-05T02:39:31.417Z,97615.58
2018-05-05T02:41:58.970Z,97617.50
2018-05-05T02:44:26.493Z,97620.52
2018-05-05T02:46:54.051Z,97625.58
2018-05-05T02:49:21.755Z,97626.16
2018-05-05T02:51:53.321Z,97628.11
2018-05-05T02:54:20.882Z,97627.54
2018-05-05T02:56:48.446Z,97624.30
2018-05-05T02:59:16.050Z,97613.70
2018-05-05T03:01:43.871Z,97612.50
2018-05-05T03:04:11.421Z,97614.66
2018-05-05T03:06:38.977Z,97609.40
2018-05-05T03:09:06.745Z,97616.42
2018-05-05T03:11:34.368Z,97615.80
2018-05-05T03:14:01.812Z,97621.58
2018-05-05T03:16:29.438Z,97621.23
2018-05-05T03:18:56.973Z,97617.23
2018-05-05T03:21:24.539Z,97614.38
2018-05-05T03:23:52.093Z,97616.70
2018-05-05T03:26:19.703Z,97615.06
2018-05-05T03:28:47.250Z,97617.55
2018-05-05T03:31:15.089Z,97617.02
2018-05-05T03:33:42.639Z,97615.77
2018-05-05T03:36:10.301Z,97619.25
2018-05-05T03:38:38.065Z,97624.57
2018-05-05T03:41:05.727Z,97618.89
2018-05-05T03:43:33.289Z,97618.31
2018-05-05T03:46:01.137Z,97619.38
2018-05-05T03:48:28.712Z,97620.57
2018-05-05T03:50:56.477Z,97621.23
2018-05-05T03:53:24.654Z,97615.64
2018-05-05T03:55:52.181Z,97613.95
2018-05-05T03:58:19.698Z,97611.88
2018-05-05T04:00:59.392Z,97616.13
2018-05-05T04:03:38.640Z,97623.95
2018-05-05T04:06:06.209Z,97618.44
2018-05-05T04:08:33.721Z,97615.25
2018-05-05T04:11:01.246Z,97623.45
2018-05-05T04:13:28.804Z,97627.01
2018-05-05T04:15:56.319Z,97633.91
2018-05-05T04:18:23.845Z,97629.22
2018-05-05T04:20:51.852Z,97628.78
2018-05-05T04:23:19.376Z,97631.37
2018-05-05T04:25:46.888Z,97631.53
2018-05-05T04:28:14.503Z,97627.84
2018-05-05T04:30:42.019Z,97628.78
2018-05-05T04:33:09.544Z,97617.64
2018-05-05T04:35:37.117Z,97627.66
2018-05-05T04:38:04.640Z,97624.83
2018-05-05T04:40:32.748Z,97622.23
2018-05-05T04:43:00.639Z,97634.57
2018-05-05T04:45:28.156Z,97634.44
2018-05-05T04:47:55.684Z,97640.39
2018-05-05T04:50:23.237Z,97635.76
2018-05-05T04:52:50.752Z,97641.30
2018-05-05T04:55:18.339Z,97638.67
2018-05-05T04:57:46.048Z,97639.48
2018-05-05T05:00:13.572Z,97649.52
2018-05-05T05:02:41.095Z,97647.96
2018-05-05T05:05:08.846Z,97653.26
2018-05-05T05:07:36.376Z,97654.00
2018-05-05T05:10:03.909Z,97656.25
2018-05-05T05:12:31.612Z,97660.83
2018-05-05T05:14:59.139Z,97663.09
2018-05-05T05:17:26.664Z,97666.70
2018-05-05T05:19:54.225Z,97668.67
2018-05-05T05:22:21.748Z,97668.52
2018-05-05T05:24:49.273Z,97677.30
2018-05-05T05:27:16.845Z,97674.09
2018-05-05T05:29:44.372Z,97674.98
2018-05-05T05:32:11.905Z,97675.13
2018-05-05T05:34:39.456Z,97675.40
2018-05-05T05:37:06.972Z,97681.04
2018-05-05T05:39:34.509Z,97680.59
2018-05-05T05:42:02.224Z,97681.92
2018-05-05T05:44:30.843Z,97694.11
2018-05-05T05:46:58.373Z,97686.63
2018-05-05T05:49:26.812Z,97701.97
2018-05-05T05:51:54.332Z,97691.39
2018-05-05T05:54:21.858Z,97701.08
2018-05-05T05:56:49.725Z,97710.10
2018-05-05T05:59:17.723Z,97706.19
2018-05-05T06:01:45.282Z,97716.70
2018-05-05T06:04:12.989Z,97713.13
2018-05-05T06:06:42.204Z,97706.70
2018-05-05T06:09:09.718Z,97710.70
2018-05-05T06:11:37.670Z,97710.89
2018-05-05T06:14:05.184Z,97708.81
2018-05-05T06:16:32.702Z,97709.38
2018-05-05T06:19:00.636Z,97717.17
2018-05-05T06:21:28.147Z,97710.75
2018-05-05T06:23:55.664Z,97715.27
2018-05-05T06:26:23.450Z,97723.89
2018-05-05T06:28:50.961Z,97723.00
2018-05-05T06:31:19.937Z,97718.61
2018-05-05T06:33:49.382Z,97718.33
2018-05-05T06:36:18.794Z,97721.84
2018-05-05T06:38:46.762Z,97721.54
2018-05-05T06:41:15.625Z,97720.63
2018-05-05T06:43:45.666Z,97721.70
2018-05-05T06:46:13.232Z,97726.13
2018-05-05T06:48:41.099Z,97729.98
2018-05-05T06:51:08.760Z,97729.20
2018-05-05T06:53:36.512Z,97722.81
2018-05-05T06:56:04.847Z,97726.78
2018-05-05T06:58:33.366Z,97721.81
2018-05-05T07:01:01.250Z,97720.36
2018-05-05T07:03:29.228Z,97720.95
2018-05-05T07:05:57.293Z,97720.17
2018-05-05T07:08:25.885Z,97713.77
2018-05-05T07:10:55.323Z,97720.09
2018-05-05T07:13:23.571Z,97707.37
2018-05-05T07:15:52.133Z,97706.14
2018-05-05T07:18:19.989Z,97706.98
2018-05-05T07:20:48.380Z,97713.73
2018-05-05T07:23:16.237Z,97713.62
2018-05-05T07:25:44.410Z,97716.34
2018-05-05T07:28:13.108Z,97713.47
2018-05-05T07:30:42.027Z,97714.63
2018-05-05T07:33:10.224Z,97729.42
2018-05-05T07:35:37.979Z,97739.73
2018-05-05T07:38:07.136Z,97740.86
2018-05-05T07:40:35.429Z,97738.17
2018-05-05T07:43:03.151Z,97734.64
2018-05-05T07:45:30.933Z,97731.83
2018-05-05T07:47:58.798Z,97748.88
2018-05-05T07:50:26.369Z,97738.75
2018-05-05T07:52:54.327Z,97744.17
2018-05-05T07:55:24.836Z,97743.50
2018-05-05T07:57:52.595Z,97734.53
2018-05-05T08:00:20.498Z,97743.88
2018-05-05T08:02:48.451Z,97744.98
2018-05-05T08:05:16.236Z,97754.16
2018-05-05T08:07:44.296Z,97746.50
2018-05-05T08:10:12.543Z,97741.50
2018-05-05T08:12:40.326Z,97740.19
2018-05-05T08:15:09.843Z,97746.06
2018-05-05T08:17:38.526Z,97740.27
2018-05-05T08:20:08.548Z,97736.54
2018-05-05T08:22:37.588Z,97745.23
2018-05-05T08:25:06.733Z,97743.05
2018-05-05T08:27:34.805Z,97740.11
2018-05-05T08:30:02.878Z,97735.93
2018-05-05T08:32:30.422Z,97732.73
2018-05-05T08:34:58.091Z,97739.63
2018-05-05T08:37:25.852Z,97734.31
2018-05-05T08:39:54.525Z,97735.13
2018-05-05T08:42:22.954Z,97737.25
2018-05-05T08:44:51.589Z,97742.66
2018-05-05T08:47:19.453Z,97745.30
2018-05-05T08:49:47.777Z,97740.20
2018-05-05T08:52:16.031Z,97733.02
2018-05-05T08:54:43.816Z,97726.27
2018-05-05T08:57:11.764Z,97730.02
2018-05-05T08:59:40.467Z,97731.06
2018-05-05T09:02:09.034Z,97740.33
2018-05-05T09:04:36.806Z,97733.08
2018-05-05T09:07:04.971Z,97738.59
2018-05-05T09:09:32.719Z,97734.17
2018-05-05T09:12:01.382Z,97730.95
2018-05-05T09:14:29.290Z,97729.80
2018-05-05T09:16:57.462Z,97730.64
2018-05-05T09:19:25.430Z,97734.75
2018-05-05T09:21:54.219Z,97733.06
2018-05-05T09:24:22.188Z,97731.05
2018-05-05T09:26:50.157Z,97735.39
2018-05-05T09:29:18.025Z,97727.91
2018-05-05T09:31:46.120Z,97736.70
2018-05-05T09:34:14.010Z,97731.71
2018-05-05T09:36:42.137Z,97723.05
2018-05-05T09:39:09.972Z,97729.17
2018-05-05T09:41:39.510Z,97722.61
2018-05-05T09:44:07.639Z,97720.72
2018-05-05T09:46:35.306Z,97712.44
2018-05-05T09:49:03.002Z,97714.50
2018-05-05T09:51:30.750Z,97714.41
2018-05-05T09:53:58.429Z,97707.83
2018-05-05T09:56:25.989Z,97716.73
2018-05-05T09:58:53.546Z,97706.41
2018-05-05T10:01:21.065Z,97696.37
2018-05-05T10:03:48.719Z,97700.10
2018-05-05T10:06:16.947Z,97693.52
2018-05-05T10:08:44.842Z,97690.34
2018-05-05T10:11:14.316Z,97691.75
2018-05-05T10:13:43.321Z,97683.48
2018-05-05T10:16:10.940Z,97686.23
2018-05-05T10:18:38.836Z,97685.83
2018-05-05T10:21:06.909Z,97690.78
2018-05-05T10:23:35.286Z,97688.27
2018-05-05T10:26:02.912Z,97686.63
2018-05-05T10:28:30.817Z,97684.13
2018-05-05T10:30:59.851Z,97681.12
2018-05-05T10:33:27.937Z,97684.80
2018-05-05T10:35:55.661Z,97678.58
2018-05-05T10:38:23.180Z,97675.29
2018-05-05T10:40:51.069Z,97677.74
2018-05-05T10:43:18.657Z,97672.09
2018-05-05T10:45:46.189Z,97670.30
2018-05-05T10:48:13.707Z,97665.42
2018-05-05T10:50:41.691Z,97670.20
2018-05-05T10:53:09.483Z,97659.81
2018-05-05T10:55:37.090Z,97670.64
2018-05-05T10:58:05.111Z,97670.67
2018-05-05T11:00:32.679Z,97665.52
2018-05-05T11:03:00.229Z,97668.81
2018-05-05T11:05:27.979Z,97664.98
2018-05-05T11:07:55.514Z,97664.00
2018-05-05T11:10:23.028Z,97662.34
2018-05-05T11:12:50.760Z,97658.74
2018-05-05T11:15:18.290Z,97654.70
2018-05-05T11:17:45.867Z,97658.20
2018-05-05T11:20:13.844Z,97651.69
2018-05-05T11:22:41.374Z,97649.27
2018-05-05T11:25:08.896Z,97644.74
2018-05-05T11:27:36.832Z,97641.97
2018-05-05T11:30:04.368Z,97649.50
2018-05-05T11:32:31.876Z,97643.61
2018-05-05T11:34:59.428Z,97650.31
2018-05-05T11:37:26.948Z,97657.95
2018-05-05T11:39:54.472Z,97647.77
2018-05-05T11:42:22.056Z,97653.56
2018-05-05T11:44:49.811Z,97646.80
2018-05-05T11:47:17.341Z,97653.42
2018-05-05T11:49:44.985Z,97651.38
2018-05-05T11:52:12.647Z,97646.50
2018-05-05T11:54:40.221Z,97641.50
2018-05-05T11:57:07.932Z,97631.94
2018-05-05T11:59:35.529Z,97630.10
2018-05-05T12:02:03.077Z,97623.05
2018-05-05T12:04:30.964Z,97628.88
2018-05-05T12:06:58.490Z,97621.25
2018-05-05T12:09:26.015Z,97621.80
2018-05-05T12:11:53.704Z,97630.91
2018-05-05T12:14:21.254Z,97629.00
2018-05-05T12:16:48.772Z,97624.14
2018-05-05T12:19:16.333Z,97619.80
2018-05-05T12:21:43.857Z,97621.52
2018-05-05T12:24:11.453Z,97620.73
2018-05-05T12:26:39.212Z,97614.73
2018-05-05T12:29:06.787Z,97620.52
2018-05-05T12:31:34.309Z,97619.83
2018-05-05T12:34:01.957Z,97613.48
2018-05-05T12:36:29.494Z,97614.76
2018-05-05T12:38:57.004Z,97613.49
2018-05-05T12:41:24.845Z,97604.70
2018-05-05T12:43:52.622Z,97612.48
2018-05-05T12:46:20.148Z,97612.27
2018-05-05T12:48:47.784Z,97612.09
2018-05-05T12:51:15.245Z,97600.94
2018-05-05T12:53:42.765Z,97612.09
2018-05-05T12:56:10.607Z,97610.75
2018-05-05T12:58:38.120Z,97598.23
2018-05-05T13:01:05.635Z,97604.41
2018-05-05T13:03:33.601Z,97607.20
2018-05-05T13:06:01.132Z,97600.97
2018-05-05T13:08:28.640Z,97606.34
2018-05-05T13:10:56.475Z,97596.22
2018-05-05T13:13:24.052Z,97600.16
2018-05-05T13:15:51.569Z,97591.38
2018-05-05T13:18:21.240Z,97593.72
2018-05-05T13:20:48.832Z,97598.77
2018-05-05T13:23:16.364Z,97589.78
2018-05-05T13:25:44.079Z,97594.74
2018-05-05T13:28:11.603Z,97591.94
2018-05-05T13:30:39.136Z,97592.03
2018-05-05T13:33:06.987Z,97588.80
2018-05-05T13:35:34.525Z,97581.38
2018-05-05T13:38:02.187Z,97582.50
2018-05-05T13:40:30.583Z,97583.13
2018-05-05T13:42:58.222Z,97579.05
2018-05-05T13:45:25.739Z,97574.55
2018-05-05T13:47:53.467Z,97577.08
2018-05-05T13:50:20.985Z,97583.70
2018-05-05T13:52:48.584Z,97576.09
2018-05-05T13:55:16.331Z,97587.42
2018-05-05T13:57:43.844Z,97579.23
2018-05-05T14:00:11.391Z,97580.19
2018-05-05T14:02:39.205Z,97587.20
2018-05-05T14:05:06.724Z,97571.30
2018-05-05T14:07:34.270Z,97571.56
2018-05-05T14:10:02.123Z,97578.24
2018-05-05T14:12:29.674Z,97577.15
2018-05-05T14:14:57.253Z,97572.54
2018-05-05T14:17:25.100Z,97578.14
2018-05-05T14:19:52.966Z,97570.23
2018-05-05T14:22:20.518Z,97570.26
2018-05-05T14:24:48.286Z,97582.58
2018-05-05T14:27:16.055Z,97575.69
2018-05-05T14:29:43.925Z,97574.78
2018-05-05T14:32:11.771Z,97577.59
2018-05-05T14:34:39.330Z,97576.65
2018-05-05T14:37:06.967Z,97575.70
2018-05-05T14:39:34.864Z,97580.67
2018-05-05T14:42:03.562Z,97565.28
2018-05-05T14:44:31.093Z,97572.59
2018-05-05T14:46:58.780Z,97568.60
2018-05-05T14:49:26.320Z,97566.22
2018-05-05T14:51:53.988Z,97567.61
2018-05-05T14:54:21.869Z,97563.73
2018-05-05T14:56:49.389Z,97567.49
2018-05-05T14:59:16.930Z,97570.97
2018-05-05T15:01:44.501Z,97575.39
2018-05-05T15:06:45.794Z,97572.61
2018-05-05T15:09:17.164Z,97574.33
2018-05-05T15:11:44.741Z,97571.09
2018-05-05T15:14:12.381Z,97565.23
2018-05-05T15:16:39.924Z,97571.14
2018-05-05T15:19:07.446Z,97573.62
2018-05-05T15:21:35.054Z,97568.48
2018-05-05T15:24:02.690Z,97568.45
2018-05-05T15:26:30.207Z,97564.26
2018-05-05T15:28:57.912Z,97570.66
2018-05-05T15:31:25.476Z,97570.94
2018-05-05T15:33:53.223Z,97571.29
2018-05-05T15:36:21.024Z,97570.88
2018-05-05T15:38:48.638Z,97578.19
2018-05-05T15:41:16.201Z,97583.17
2018-05-05T15:43:43.900Z,97578.75
2018-05-05T15:46:11.437Z,97579.18
2018-05-05T15:48:38.961Z,97576.55
2018-05-05T15:51:06.524Z,97581.96
2018-05-05T15:53:34.560Z,97580.55
2018-05-05T15:56:02.220Z,97580.34
2018-05-05T15:58:30.188Z,97578.34
2018-05-05T16:00:57.825Z,97577.36
2018-05-05T16:03:25.333Z,97577.44
2018-05-05T16:05:52.903Z,97583.70
2018-05-05T16:08:20.490Z,97584.88
2018-05-05T16:10:48.029Z,97581.56
2018-05-05T16:13:15.683Z,97578.06
2018-05-05T16:15:43.231Z,97579.38
2018-05-05T16:18:10.744Z,97580.38
2018-05-05T16:20:38.617Z,97572.63
2018-05-05T16:23:06.124Z,97571.16
2018-05-05T16:25:33.645Z,97570.64
2018-05-05T16:28:01.214Z,97570.95
2018-05-05T16:30:28.752Z,97577.66
2018-05-05T16:32:56.309Z,97562.15
2018-05-05T16:35:24.104Z,97575.13
2018-05-05T16:37:51.627Z,97572.69
2018-05-05T16:40:19.267Z,97579.00
2018-05-05T16:42:47.085Z,97577.97
2018-05-05T16:45:14.602Z,97574.39
2018-05-05T16:47:42.227Z,97575.66
2018-05-05T16:50:09.840Z,97572.79
2018-05-05T16:52:37.383Z,97566.42
2018-05-05T16:55:04.891Z,97580.28
2018-05-05T16:57:32.741Z,97579.84
2018-05-05T17:00:00.333Z,97574.89
2018-05-05T17:02:27.840Z,97577.78
2018-05-05T17:04:55.605Z,97570.45
2018-05-05T17:07:23.153Z,97561.91
2018-05-05T17:09:50.661Z,97569.19
2018-05-05T17:12:18.381Z,97562.33
2018-05-05T17:14:45.898Z,97562.53
2018-05-05T17:17:13.416Z,97567.91
2018-05-05T17:19:41.295Z,97569.17
2018-05-05T17:22:08.821Z,97573.91
2018-05-05T17:24:36.330Z,97575.55
2018-05-05T17:27:03.880Z,97570.50
2018-05-05T17:29:31.395Z,97575.06
2018-05-05T17:31:58.939Z,97570.89
2018-05-05T17:34:26.748Z,97573.14
2018-05-05T17:36:54.274Z,97575.44
2018-05-05T17:39:21.793Z,97576.83
2018-05-05T17:41:49.401Z,97572.61
2018-05-05T17:44:16.983Z,97577.44
2018-05-05T17:46:44.527Z,97574.36
2018-05-05T17:49:12.832Z,97578.22
2018-05-05T17:51:40.716Z,97574.50
2018-05-05T17:54:08.268Z,97580.74
2018-05-05T17:56:36.108Z,97572.88
2018-05-05T17:59:03.629Z,97573.98
2018-05-05T18:01:31.155Z,97578.91
2018-05-05T18:03:58.721Z,97575.77
2018-05-05T18:06:26.337Z,97577.19
2018-05-05T18:08:54.011Z,97578.16
2018-05-05T18:11:22.108Z,97587.15
2018-05-05T18:13:49.787Z,97585.86
2018-05-05T18:16:18.323Z,97581.81
2018-05-05T18:18:46.194Z,97583.85
2018-05-05T18:21:17.136Z,97589.00
2018-05-05T18:23:44.724Z,97590.50
2018-05-05T18:26:12.662Z,97585.70
2018-05-05T18:28:40.420Z,97594.44
2018-05-05T18:31:08.143Z,97590.77
2018-05-05T18:33:35.785Z,97590.70
2018-05-05T18:36:03.304Z,97596.84
2018-05-05T18:38:30.844Z,97599.56
2018-05-05T18:40:58.547Z,97595.11
2018-05-05T18:43:26.403Z,97593.96
2018-05-05T18:45:54.075Z,97599.63
2018-05-05T18:48:21.807Z,97601.73
2018-05-05T18:50:49.482Z,97603.95
2018-05-05T18:53:17.280Z,97606.42
2018-05-05T18:55:45.114Z,97611.16
2018-05-05T18:58:12.981Z,97613.11
2018-05-05T19:00:41.564Z,97622.69
2018-05-05T19:03:09.842Z,97621.66
2018-05-05T19:05:37.605Z,97626.88
2018-05-05T19:08:05.779Z,97633.00
2018-05-05T19:10:33.962Z,97638.94
2018-05-05T19:13:01.616Z,97642.10
2018-05-05T19:15:29.387Z,97644.33
2018-05-05T19:17:57.593Z,97648.56
2018-05-05T19:20:25.365Z,97648.13
2018-05-05T19:22:53.496Z,97647.06
2018-05-05T19:25:21.325Z,97655.92
2018-05-05T19:27:49.020Z,97652.14
2018-05-05T19:30:16.885Z,97656.52
2018-05-05T19:32:44.952Z,97658.98
2018-05-05T19:35:12.725Z,97659.16
2018-05-05T19:37:40.560Z,97667.72
2018-05-05T19:40:09.068Z,97671.59
2018-05-05T19:42:36.933Z,97672.52
2018-05-05T19:45:04.802Z,97676.80
2018-05-05T19:47:32.872Z,97675.08
2018-05-05T19:50:00.533Z,97678.63
2018-05-05T19:52:28.196Z,97679.62
2018-05-05T19:54:56.266Z,97679.66
2018-05-05T19:57:24.099Z,97679.07
2018-05-05T19:59:52.766Z,97680.77
2018-05-05T20:02:21.712Z,97682.21
2018-05-05T20:04:49.650Z,97690.42
2018-05-05T20:07:17.545Z,97688.56
2018-05-05T20:09:45.411Z,97688.64
2018-05-05T20:12:13.484Z,97690.05
2018-05-05T20:14:42.184Z,97688.22
2018-05-05T20:17:10.013Z,97693.92
2018-05-05T20:19:37.698Z,97695.86
2018-05-05T20:22:05.565Z,97690.47
2018-05-05T20:24:34.148Z,97703.08
2018-05-05T20:27:01.779Z,97695.47
2018-05-05T20:29:29.404Z,97703.36
2018-05-05T20:31:57.552Z,97705.92
2018-05-05T20:34:25.399Z,97702.95
2018-05-05T20:36:53.058Z,97703.84
2018-05-05T20:39:20.940Z,97708.91
2018-05-05T20:41:48.456Z,97709.03
2018-05-05T20:44:15.992Z,97712.77
2018-05-05T20:46:44.027Z,97715.80
2018-05-05T20:49:11.577Z,97708.14
2018-05-05T20:51:39.155Z,97717.61
2018-05-05T20:54:07.831Z,97717.20
2018-05-05T20:56:35.700Z,97718.41
2018-05-05T20:59:03.671Z,97720.16
2018-05-05T21:01:32.145Z,97714.67
2018-05-05T21:03:59.945Z,97719.61
2018-05-05T21:06:27.852Z,97723.92
2018-05-05T21:08:55.737Z,97725.05
2018-05-05T21:11:23.520Z,97724.54
2018-05-05T21:13:51.176Z,97727.18
2018-05-05T21:16:19.458Z,97727.38
2018-05-05T21:18:47.321Z,97730.78
2018-05-05T21:21:15.389Z,97733.33
2018-05-05T21:23:43.426Z,97738.94
2018-05-05T21:26:11.434Z,97738.59
2018-05-05T21:28:39.912Z,97742.73
2018-05-05T21:31:08.173Z,97735.89
2018-05-05T21:33:36.155Z,97741.03
2018-05-05T21:36:03.816Z,97737.94
2018-05-05T21:38:33.654Z,97741.91
2018-05-05T21:41:01.422Z,97742.44
2018-05-05T21:43:28.957Z,97741.81
2018-05-05T21:45:56.568Z,97741.67
2018-05-05T21:48:24.478Z,97744.22
2018-05-05T21:50:52.011Z,97745.28
2018-05-05T21:53:19.806Z,97745.41
2018-05-05T21:55:47.365Z,97748.47
2018-05-05T21:58:14.909Z,97748.78
2018-05-05T22:00:42.686Z,97751.24
2018-05-05T22:03:10.682Z,97747.02
2018-05-05T22:05:38.229Z,97746.83
2018-05-05T22:08:05.801Z,97747.97
2018-05-05T22:10:33.504Z,97750.27
2018-05-05T22:13:02.033Z,97744.89
2018-05-05T22:15:30.398Z,97746.63
2018-05-05T22:17:58.671Z,97745.08
2018-05-05T22:20:26.210Z,97743.12
2018-05-05T22:22:54.102Z,97741.11
2018-05-05T22:25:21.617Z,97739.57
2018-05-05T22:27:49.141Z,97744.66
2018-05-05T22:30:16.705Z,97751.98
2018-05-05T22:32:44.302Z,97745.64
2018-05-05T22:35:12.094Z,97738.81
2018-05-05T22:37:39.661Z,97742.28
2018-05-05T22:40:07.397Z,97746.08
2018-05-05T22:42:35.547Z,97744.42
2018-05-05T22:45:03.364Z,97748.64
2018-05-05T22:47:31.008Z,97750.84
2018-05-05T22:49:58.589Z,97754.17
2018-05-05T22:52:26.354Z,97753.50
2018-05-05T22:54:53.906Z,97752.95
2018-05-05T22:57:21.470Z,97754.05
2018-05-05T22:59:49.812Z,97754.82
2018-05-05T23:02:17.342Z,97756.57
2018-05-05T23:04:44.872Z,97754.77
2018-05-05T23:07:12.727Z,97750.47
2018-05-05T23:09:40.292Z,97756.64
2018-05-05T23:12:07.966Z,97753.00
2018-05-05T23:14:35.700Z,97752.80
2018-05-05T23:17:03.286Z,97752.91
2018-05-05T23:19:30.818Z,97752.55
2018-05-05T23:21:58.484Z,97753.27
2018-05-05T23:24:26.018Z,97752.89
2018-05-05T23:26:53.534Z,97745.80
2018-05-05T23:29:21.593Z,97739.30
2018-05-05T23:31:49.128Z,97737.05
2018-05-05T23:34:16.654Z,97740.34
2018-05-05T23:36:44.466Z,97733.06
2018-05-05T23:39:12.872Z,97734.91
2018-05-05T23:41:40.431Z,97735.33
2018-05-05T23:44:08.145Z,97733.12
2018-05-05T23:46:35.695Z,97731.80
2018-05-05T23:49:03.490Z,97730.56
2018-05-05T23:51:31.055Z,97734.90
2018-05-05T23:53:58.593Z,97729.15
2018-05-05T23:56:26.374Z,97737.91
2018-05-05T23:58:54.196Z,97736.77
